Time;durP1;ratioP1;P1;durP2;ratioP2;P2;SDS_P1;SDS_P2;PMS_P1;PMS_P2;Temp;Humidity;BMP_temperature;BMP_pressure;BME280_temperature;BME280_humidity;BME280_pressure;Samples;Min_cycle;Max_cycle;Signal;HPM_P1;HPM_P2
2023/01/18 00:01:05;;;;;;;7.30;3.13;;;-1.60;99.90;;;;;;5072180;28;20326;-81
2023/01/18 00:03:34;;;;;;;6.63;3.35;;;-1.60;99.90;;;;;;5073466;28;20490;-82
2023/01/18 00:06:01;;;;;;;12.43;3.83;;;-1.60;99.90;;;;;;5073052;28;20047;-83
2023/01/18 00:08:29;;;;;;;7.13;3.30;;;-1.60;99.90;;;;;;5072686;28;20101;-78
2023/01/18 00:11:01;;;;;;;8.25;3.67;;;-1.60;99.90;;;;;;5072315;28;20109;-79
2023/01/18 00:13:27;;;;;;;6.07;2.95;;;-1.50;99.90;;;;;;5072212;28;20097;-81
2023/01/18 00:15:52;;;;;;;8.80;3.72;;;-1.50;99.90;;;;;;5072552;28;20048;-79
2023/01/18 00:18:18;;;;;;;10.88;3.38;;;-1.40;99.90;;;;;;5071983;28;20044;-78
2023/01/18 00:20:44;;;;;;;9.45;3.15;;;-1.40;99.90;;;;;;5073488;28;20125;-78
2023/01/18 00:23:09;;;;;;;7.75;3.65;;;-1.40;99.90;;;;;;5072772;28;20052;-78
2023/01/18 00:25:35;;;;;;;8.48;3.45;;;-1.40;99.90;;;;;;5072524;28;20048;-78
2023/01/18 00:28:01;;;;;;;6.65;3.15;;;-1.40;99.90;;;;;;5072637;28;20083;-85
2023/01/18 00:30:28;;;;;;;6.03;2.95;;;-1.40;99.90;;;;;;5072115;28;20044;-79
2023/01/18 00:32:56;;;;;;;9.43;3.80;;;-1.40;99.90;;;;;;5071952;28;20059;-79
2023/01/18 00:35:22;;;;;;;7.45;4.15;;;-1.50;99.90;;;;;;5072641;28;20063;-79
2023/01/18 00:37:50;;;;;;;9.75;3.38;;;-1.50;99.90;;;;;;5071794;28;20052;-79
2023/01/18 00:40:16;;;;;;;11.85;3.78;;;-1.50;99.90;;;;;;5071198;28;20098;-80
2023/01/18 00:45:27;;;;;;;8.52;3.53;;;-1.50;99.90;;;;;;5071451;28;20056;-80
2023/01/18 00:47:52;;;;;;;;;;;-1.50;99.90;;;;;;5072859;28;20056;-78
2023/01/18 00:50:19;;;;;;;7.72;4.03;;;-1.50;99.90;;;;;;5072369;28;19920;-78
2023/01/18 00:52:46;;;;;;;6.38;3.20;;;-1.50;99.90;;;;;;5071437;28;20527;-79
2023/01/18 00:55:14;;;;;;;11.00;3.92;;;-1.60;99.90;;;;;;5070568;28;20048;-79
2023/01/18 00:57:40;;;;;;;10.88;4.35;;;-1.60;99.90;;;;;;5071364;28;20056;-78
2023/01/18 01:00:08;;;;;;;6.88;3.55;;;-1.60;99.90;;;;;;5072156;28;20062;-83
2023/01/18 01:02:38;;;;;;;10.98;3.88;;;-1.60;99.90;;;;;;5072260;28;20118;-79
2023/01/18 01:07:48;;;;;;;12.45;4.22;;;-1.60;99.90;;;;;;5071780;28;20060;-79
2023/01/18 01:10:14;;;;;;;9.10;4.22;;;-1.60;99.90;;;;;;5071528;28;20044;-78
2023/01/18 01:26:23;;;;;;;11.60;4.88;;;-1.80;99.90;;;;;;5069630;28;20094;-78
2023/01/18 01:28:52;;;;;;;9.52;4.22;;;-1.80;99.90;;;;;;5070628;28;20114;-78
2023/01/18 01:31:19;;;;;;;7.47;4.03;;;-1.80;99.90;;;;;;5070343;28;20083;-80
2023/01/18 01:33:49;;;;;;;8.85;4.40;;;-1.80;99.90;;;;;;5071058;28;20434;-78
2023/01/18 01:36:18;;;;;;;8.35;4.35;;;-1.80;99.90;;;;;;5071460;28;20646;-78
2023/01/18 01:38:44;;;;;;;10.10;4.78;;;-1.80;99.90;;;;;;5070778;28;20052;-79
2023/01/18 01:41:25;;;;;;;9.43;4.70;;;-1.70;99.90;;;;;;5071012;28;20547;-82
2023/01/18 01:43:58;;;;;;;9.68;4.18;;;-1.70;99.90;;;;;;5054390;28;20059;-78
2023/01/18 01:46:34;;;;;;;8.05;4.05;;;-1.60;99.90;;;;;;5071318;28;20394;-79
2023/01/18 01:49:05;;;;;;;11.15;4.97;;;-1.60;99.90;;;;;;5071948;28;20095;-78
2023/01/18 01:51:33;;;;;;;9.63;4.65;;;-1.30;99.90;;;;;;5070362;28;20048;-78
2023/01/18 01:54:01;;;;;;;8.93;4.53;;;-1.50;99.90;;;;;;5070354;28;20040;-78
2023/01/18 01:56:29;;;;;;;11.70;4.90;;;-1.50;99.90;;;;;;5070417;28;20139;-78
2023/01/18 01:58:58;;;;;;;8.00;4.07;;;-1.50;99.90;;;;;;5070810;28;20048;-78
2023/01/18 02:01:26;;;;;;;9.80;4.38;;;-1.50;99.90;;;;;;5069873;28;20079;-78
2023/01/18 02:03:54;;;;;;;9.18;4.85;;;-1.00;99.90;;;;;;5071726;28;20040;-78
2023/01/18 02:06:31;;;;;;;9.73;5.03;;;-1.60;99.90;;;;;;5070629;28;20555;-78
2023/01/18 02:09:02;;;;;;;11.85;4.43;;;-1.60;99.90;;;;;;5070334;28;20087;-78
2023/01/18 02:11:28;;;;;;;10.13;4.65;;;-1.70;99.90;;;;;;5071274;28;20059;-78
2023/01/18 02:13:57;;;;;;;8.75;4.15;;;-1.70;99.90;;;;;;5071707;28;20481;-77
2023/01/18 02:16:52;;;;;;;9.93;4.40;;;-1.80;99.90;;;;;;5070007;28;20078;-78
2023/01/18 02:19:59;;;;;;;11.18;4.40;;;-1.80;99.90;;;;;;5070284;28;20060;-78
2023/01/18 02:22:33;;;;;;;10.10;5.00;;;-1.80;99.90;;;;;;5042264;28;20060;-78
2023/01/18 02:25:05;;;;;;;8.05;4.18;;;-1.80;99.90;;;;;;5070888;28;20088;-78
2023/01/18 02:27:47;;;;;;;9.25;3.72;;;-1.80;99.90;;;;;;5069917;28;20117;-78
2023/01/18 02:30:37;;;;;;;11.15;4.53;;;-1.70;99.90;;;;;;5071203;28;20136;-81
2023/01/18 02:33:14;;;;;;;7.07;4.03;;;-1.70;99.90;;;;;;5071271;28;20060;-77
2023/01/18 02:35:49;;;;;;;11.27;4.57;;;-1.50;99.90;;;;;;5071449;28;20509;-78
2023/01/18 02:38:26;;;;;;;7.65;3.70;;;-1.70;99.90;;;;;;5074271;28;20478;-77
2023/01/18 02:40:55;;;;;;;7.85;4.18;;;-1.70;99.90;;;;;;5074943;28;20044;-78
2023/01/18 02:46:32;;;;;;;10.57;4.30;;;-1.80;99.90;;;;;;5075241;28;20044;-77
2023/01/18 02:49:03;;;;;;;7.50;4.18;;;-1.80;99.90;;;;;;5073597;28;20440;-77
2023/01/18 02:51:28;;;;;;;8.95;4.03;;;-1.80;99.90;;;;;;5074498;28;20052;-77
2023/01/18 02:53:55;;;;;;;8.75;3.95;;;-1.80;99.90;;;;;;5074416;28;20097;-77
2023/01/18 02:56:35;;;;;;;9.00;3.65;;;-1.80;99.90;;;;;;5074545;28;20044;-77
2023/01/18 02:59:08;;;;;;;11.27;4.53;;;-1.80;99.90;;;;;;5075271;28;20049;-78
2023/01/18 03:01:46;;;;;;;12.02;4.78;;;-1.80;99.90;;;;;;5073398;28;20052;-79
2023/01/18 03:04:23;;;;;;;10.63;4.32;;;-1.90;99.90;;;;;;5074920;28;20056;-77
2023/01/18 03:06:52;;;;;;;;;;;-1.90;99.90;;;;;;5073687;28;20049;-78
2023/01/18 03:09:21;;;;;;;8.68;4.32;;;-1.80;99.90;;;;;;5074016;28;19932;-78
2023/01/18 03:11:55;;;;;;;9.68;4.13;;;-1.80;99.90;;;;;;5056846;28;20053;-77
2023/01/18 03:14:36;;;;;;;11.85;4.30;;;-1.80;99.90;;;;;;5074368;28;20048;-78
2023/01/18 03:17:35;;;;;;;10.60;4.03;;;-1.80;99.90;;;;;;5073589;28;20095;-78
2023/01/18 03:20:07;;;;;;;8.23;4.38;;;-1.80;99.90;;;;;;5073604;28;20130;-77
2023/01/18 03:25:38;;;;;;;10.82;4.53;;;-1.80;99.90;;;;;;5073537;28;20051;-78
2023/01/18 03:33:49;;;;;;;13.95;4.53;;;-1.30;99.90;;;;;;5073126;28;20106;-78
2023/01/18 03:36:17;;;;;;;8.80;4.50;;;-1.80;99.90;;;;;;5073025;28;20056;-78
2023/01/18 03:38:46;;;;;;;7.38;4.10;;;-1.80;99.90;;;;;;5072796;28;20052;-77
2023/01/18 03:41:14;;;;;;;9.85;4.53;;;-1.60;99.90;;;;;;5072986;28;20052;-78
2023/01/18 03:43:41;;;;;;;10.48;4.47;;;-1.80;99.90;;;;;;5072786;28;20443;-77
2023/01/18 03:46:07;;;;;;;10.38;5.25;;;-1.80;99.90;;;;;;5073998;28;20040;-77
2023/01/18 03:48:35;;;;;;;10.13;4.43;;;-1.80;99.90;;;;;;5071778;28;20056;-78
2023/01/18 03:51:18;;;;;;;9.70;4.95;;;-1.80;99.90;;;;;;5072826;28;20049;-78
2023/01/18 03:53:54;;;;;;;12.98;5.47;;;-1.80;99.90;;;;;;5072571;28;20049;-77
2023/01/18 03:56:27;;;;;;;;;;;-1.80;99.90;;;;;;5072461;28;20409;-80
2023/01/18 03:58:56;;;;;;;10.05;5.20;;;-1.80;99.90;;;;;;5073915;28;19920;-77
2023/01/18 04:01:23;;;;;;;10.65;4.82;;;-1.80;99.90;;;;;;5073215;28;20041;-78
2023/01/18 04:03:49;;;;;;;16.48;5.15;;;-1.80;99.90;;;;;;5072434;28;20055;-77
2023/01/18 04:06:14;;;;;;;8.60;4.38;;;-1.70;99.90;;;;;;5072337;28;20045;-77
2023/01/18 04:08:40;;;;;;;9.38;5.38;;;-1.80;99.90;;;;;;5055421;28;20075;-78
2023/01/18 04:11:06;;;;;;;10.05;5.03;;;-1.90;99.90;;;;;;5072475;28;20041;-77
2023/01/18 04:13:31;;;;;;;12.15;4.88;;;-2.00;99.90;;;;;;5073173;28;20045;-77
2023/01/18 04:15:57;;;;;;;12.18;4.72;;;-2.00;99.90;;;;;;5072545;28;20057;-77
2023/01/18 04:18:23;;;;;;;8.40;4.75;;;-2.00;99.90;;;;;;5071998;28;20049;-80
2023/01/18 04:20:48;;;;;;;10.20;5.10;;;-2.00;99.90;;;;;;5072497;28;20394;-77
2023/01/18 04:23:14;;;;;;;12.77;5.40;;;-2.00;99.90;;;;;;5072774;28;20175;-77
2023/01/18 04:25:44;;;;;;;13.82;5.25;;;-2.00;99.90;;;;;;5072202;28;20044;-78
2023/01/18 04:28:10;;;;;;;9.77;4.13;;;-2.00;99.90;;;;;;5055103;28;20074;-78
2023/01/18 04:30:36;;;;;;;13.07;5.72;;;-2.00;99.90;;;;;;5071890;28;20044;-78
2023/01/18 04:33:02;;;;;;;;;;;-1.90;99.90;;;;;;5072332;28;20048;-77
2023/01/18 04:35:27;;;;;;;10.57;5.45;;;-1.90;99.90;;;;;;5072634;28;20020;-78
2023/01/18 04:37:53;;;;;;;13.93;5.93;;;-1.90;99.90;;;;;;5071645;28;20055;-77
2023/01/18 04:40:19;;;;;;;10.85;5.15;;;-1.90;99.90;;;;;;5072722;28;20063;-77
2023/01/18 04:42:51;;;;;;;13.13;5.60;;;-1.90;99.90;;;;;;5071432;28;20055;-77
2023/01/18 04:45:18;;;;;;;12.23;5.68;;;-1.90;99.90;;;;;;5071793;28;20098;-77
2023/01/18 04:47:44;;;;;;;11.10;5.88;;;-1.90;99.90;;;;;;5071325;28;20575;-77
2023/01/18 04:50:10;;;;;;;9.82;5.50;;;-1.70;99.90;;;;;;5071693;28;20078;-77
2023/01/18 04:52:36;;;;;;;;;;;-2.00;99.90;;;;;;5071390;28;20052;-77
2023/01/18 04:55:01;;;;;;;10.30;5.10;;;-2.00;99.90;;;;;;5070955;28;20035;-78
2023/01/18 04:57:27;;;;;;;16.55;4.82;;;-2.10;99.90;;;;;;5071258;28;20056;-77
2023/01/18 04:59:53;;;;;;;11.45;5.93;;;-2.10;99.90;;;;;;5071755;28;20132;-77
2023/01/18 05:02:19;;;;;;;12.85;5.85;;;-1.80;99.90;;;;;;5054531;28;20070;-77
2023/01/18 05:04:44;;;;;;;11.00;5.90;;;-2.10;99.90;;;;;;5070934;28;20045;-77
2023/01/18 05:07:11;;;;;;;12.07;5.88;;;-2.10;99.90;;;;;;5072298;28;20505;-77
2023/01/18 05:09:36;;;;;;;16.30;5.68;;;-2.10;99.90;;;;;;5070156;28;20052;-77
2023/01/18 05:12:02;;;;;;;12.40;5.50;;;-2.10;99.90;;;;;;5071366;28;20055;-78
2023/01/18 05:14:28;;;;;;;15.48;5.97;;;-2.20;99.90;;;;;;5071061;28;20059;-78
2023/01/18 05:16:53;;;;;;;12.80;6.32;;;-2.20;99.90;;;;;;5070894;28;20477;-77
2023/01/18 05:19:19;;;;;;;13.27;6.57;;;-2.20;99.90;;;;;;5071319;28;20098;-77
2023/01/18 05:21:45;;;;;;;11.73;5.35;;;-2.20;99.90;;;;;;5070652;28;20059;-77
2023/01/18 05:24:11;;;;;;;11.77;5.97;;;-2.20;99.90;;;;;;5071785;28;20108;-77
2023/01/18 05:26:36;;;;;;;11.52;5.35;;;-2.20;99.90;;;;;;5070495;28;20136;-77
2023/01/18 05:29:02;;;;;;;9.30;5.32;;;-2.20;99.90;;;;;;5072156;28;20086;-77
2023/01/18 05:31:28;;;;;;;15.07;5.65;;;-2.20;99.90;;;;;;5071544;28;20075;-79
2023/01/18 05:33:56;;;;;;;13.80;5.68;;;-2.20;99.90;;;;;;5070878;28;20059;-77
2023/01/18 05:36:22;;;;;;;16.00;6.38;;;-2.20;99.90;;;;;;5070861;28;20070;-77
2023/01/18 05:38:47;;;;;;;10.02;5.45;;;-2.00;99.90;;;;;;5070411;28;20682;-77
2023/01/18 05:41:13;;;;;;;9.38;5.20;;;-2.20;99.90;;;;;;5071777;28;20048;-77
2023/01/18 05:43:39;;;;;;;19.05;5.45;;;-2.20;99.90;;;;;;5070440;28;20079;-77
2023/01/18 05:46:05;;;;;;;12.32;5.45;;;-2.20;99.90;;;;;;5070770;28;20045;-77
2023/01/18 05:48:30;;;;;;;15.70;5.05;;;-2.10;99.90;;;;;;5070339;28;20044;-78
2023/01/18 05:50:56;;;;;;;8.63;4.80;;;-2.00;99.90;;;;;;5037462;28;20135;-78
2023/01/18 05:53:22;;;;;;;14.13;6.05;;;-2.00;99.90;;;;;;5071964;28;20044;-77
2023/01/18 05:55:56;;;;;;;11.73;5.47;;;-2.00;99.90;;;;;;5070778;28;20048;-77
2023/01/18 05:58:21;;;;;;;11.00;5.38;;;-2.00;99.90;;;;;;5070622;28;20056;-78
2023/01/18 06:00:47;;;;;;;15.95;6.25;;;-2.00;99.90;;;;;;5070492;28;20060;-78
2023/01/18 06:03:13;;;;;;;12.20;5.65;;;-2.00;99.90;;;;;;5071488;28;20573;-77
2023/01/18 06:05:39;;;;;;;;;;;-2.00;99.90;;;;;;5071607;28;20052;-77
2023/01/18 06:08:04;;;;;;;15.75;6.47;;;-2.00;99.90;;;;;;5071287;28;19921;-78
2023/01/18 06:10:30;;;;;;;13.48;5.95;;;-2.00;99.90;;;;;;5069881;28;20109;-79
2023/01/18 06:12:56;;;;;;;13.02;6.07;;;-2.00;99.90;;;;;;5073114;28;20048;-78
2023/01/18 06:15:21;;;;;;;9.68;5.35;;;-1.50;99.90;;;;;;5074130;28;20494;-77
2023/01/18 06:17:47;;;;;;;12.65;6.18;;;-1.80;99.90;;;;;;5075267;28;20131;-77
2023/01/18 06:20:13;;;;;;;15.40;5.93;;;-1.80;99.90;;;;;;5074698;28;20508;-78
2023/01/18 06:22:39;;;;;;;;;;;-1.80;99.90;;;;;;5074525;28;20062;-77
2023/01/18 06:25:07;;;;;;;22.92;5.75;;;-1.80;99.90;;;;;;5074214;28;20041;-77
2023/01/18 06:27:32;;;;;;;10.93;5.65;;;-1.80;99.90;;;;;;5075146;28;20088;-79
2023/01/18 06:29:58;;;;;;;11.50;5.78;;;-1.80;99.90;;;;;;5073987;28;20137;-77
2023/01/18 06:32:24;;;;;;;13.38;5.07;;;-1.80;99.90;;;;;;5075203;28;20577;-77
2023/01/18 06:34:50;;;;;;;14.27;6.78;;;-1.80;99.90;;;;;;5075042;28;20135;-78
2023/01/18 06:37:15;;;;;;;12.40;5.50;;;-1.80;99.90;;;;;;5073952;28;20048;-78
2023/01/18 06:39:41;;;;;;;14.70;6.32;;;-1.80;99.90;;;;;;5074608;28;20055;-77
2023/01/18 06:42:07;;;;;;;14.90;6.50;;;-1.80;99.90;;;;;;5075238;28;20040;-77
2023/01/18 06:44:32;;;;;;;15.13;6.25;;;-1.80;99.90;;;;;;5075306;28;20371;-77
2023/01/18 06:46:58;;;;;;;16.65;5.68;;;-1.80;99.90;;;;;;5073482;28;20055;-77
2023/01/18 06:49:24;;;;;;;10.52;5.30;;;-1.80;99.90;;;;;;5075158;28;20547;-78
2023/01/18 06:51:49;;;;;;;14.48;6.40;;;-1.80;99.90;;;;;;5074576;28;20048;-77
2023/01/18 06:54:15;;;;;;;14.73;6.28;;;-1.80;99.90;;;;;;5073698;28;20045;-77
2023/01/18 06:56:41;;;;;;;15.25;6.47;;;-1.80;99.90;;;;;;5073400;28;20045;-78
2023/01/18 06:59:07;;;;;;;11.85;6.60;;;-1.70;99.90;;;;;;5074783;28;20048;-77
2023/01/18 07:01:33;;;;;;;11.52;5.90;;;-1.80;99.90;;;;;;5074699;28;20059;-78
2023/01/18 07:03:59;;;;;;;14.38;6.63;;;-1.80;99.90;;;;;;5056846;28;20045;-77
2023/01/18 07:06:25;;;;;;;15.38;7.03;;;-1.80;99.90;;;;;;5073246;28;20067;-77
2023/01/18 07:08:50;;;;;;;13.95;6.45;;;-1.80;99.90;;;;;;5074151;28;20048;-77
2023/01/18 07:11:17;;;;;;;14.00;6.65;;;-1.80;99.90;;;;;;5073516;28;20544;-77
2023/01/18 07:13:45;;;;;;;13.88;6.80;;;-1.80;99.90;;;;;;5073371;28;20083;-77
2023/01/18 07:16:19;;;;;;;14.88;6.88;;;-1.80;99.90;;;;;;5074245;28;20565;-78
2023/01/18 07:18:47;;;;;;;14.95;6.78;;;-1.80;99.90;;;;;;5073243;28;20056;-79
2023/01/18 07:21:14;;;;;;;30.92;8.68;;;-1.80;99.90;;;;;;5073233;28;20044;-77
2023/01/18 07:23:40;;;;;;;16.17;7.15;;;-1.80;99.90;;;;;;5071656;28;20056;-78
2023/01/18 07:26:10;;;;;;;19.02;7.88;;;-1.80;99.90;;;;;;5074271;28;20147;-77
2023/01/18 07:28:36;;;;;;;16.60;7.88;;;-1.80;99.90;;;;;;5073151;28;20397;-77
2023/01/18 07:31:03;;;;;;;18.55;8.32;;;-1.80;99.90;;;;;;5074188;28;20052;-77
2023/01/18 07:33:29;;;;;;;17.25;8.20;;;-1.90;99.90;;;;;;5073197;28;20048;-77
2023/01/18 07:35:56;;;;;;;17.88;8.10;;;-1.80;99.90;;;;;;5072420;28;20049;-78
2023/01/18 07:38:23;;;;;;;16.50;7.63;;;-1.80;99.90;;;;;;5074059;28;20059;-78
2023/01/18 07:40:49;;;;;;;16.67;8.32;;;-1.80;99.90;;;;;;5055436;28;20102;-73
2023/01/18 07:43:16;;;;;;;17.00;7.88;;;-1.80;99.90;;;;;;5074113;28;20045;-76
2023/01/18 07:45:43;;;;;;;14.38;7.43;;;-1.60;99.90;;;;;;5073734;28;20041;-78
2023/01/18 07:48:09;;;;;;;15.85;7.68;;;-1.30;99.90;;;;;;5072602;28;20084;-81
2023/01/18 07:50:35;;;;;;;20.48;8.73;;;-0.90;99.90;;;;;;5074055;28;20045;-71
2023/01/18 07:53:07;;;;;;;19.27;7.72;;;-1.20;99.90;;;;;;5073328;28;20510;-78
2023/01/18 07:55:34;;;;;;;16.85;8.13;;;-1.20;99.90;;;;;;5073594;28;20045;-78
2023/01/18 07:58:00;;;;;;;17.95;9.02;;;-1.30;99.90;;;;;;5073259;28;20044;-76
2023/01/18 08:00:27;;;;;;;18.10;7.38;;;-1.40;99.90;;;;;;5073315;28;20482;-76
2023/01/18 08:02:53;;;;;;;15.43;6.80;;;-1.60;99.90;;;;;;5073219;28;20052;-77
2023/01/18 08:05:22;;;;;;;17.67;8.05;;;-1.60;99.90;;;;;;5073597;28;20102;-77
2023/01/18 08:07:49;;;;;;;14.18;7.45;;;-1.70;99.90;;;;;;5073146;28;20044;-76
2023/01/18 08:10:16;;;;;;;17.13;8.02;;;-1.70;99.90;;;;;;5072229;28;20049;-76
2023/01/18 08:12:42;;;;;;;20.75;8.50;;;-1.60;99.90;;;;;;5072347;28;20048;-78
2023/01/18 08:15:08;;;;;;;17.23;7.57;;;-1.60;99.90;;;;;;5073503;28;20131;-79
2023/01/18 08:17:34;;;;;;;;;;;-1.60;99.90;;;;;;5073494;28;20482;-78
2023/01/18 08:20:00;;;;;;;16.17;7.32;;;-1.60;99.90;;;;;;5073017;28;19920;-77
2023/01/18 08:22:25;;;;;;;15.45;7.53;;;-1.60;99.90;;;;;;5073045;28;20075;-79
2023/01/18 08:24:51;;;;;;;18.98;7.68;;;-1.60;99.90;;;;;;5072455;28;20048;-77
2023/01/18 08:27:17;;;;;;;17.48;7.00;;;-1.50;99.90;;;;;;5073243;28;20071;-77
2023/01/18 08:29:43;;;;;;;17.00;7.25;;;-1.50;99.90;;;;;;5071625;28;20052;-77
2023/01/18 08:32:09;;;;;;;20.88;7.75;;;-1.10;99.90;;;;;;5072885;28;20082;-77
2023/01/18 08:34:36;;;;;;;16.35;6.63;;;-1.40;99.90;;;;;;5072946;28;20080;-77
2023/01/18 08:37:02;;;;;;;15.23;6.97;;;-1.40;99.90;;;;;;5071161;28;20283;-79
2023/01/18 08:39:27;;;;;;;17.23;6.88;;;-1.30;99.90;;;;;;5071747;28;20086;-77
2023/01/18 08:41:53;;;;;;;15.25;6.55;;;-1.20;99.90;;;;;;5072638;28;20052;-77
2023/01/18 08:44:19;;;;;;;13.90;6.53;;;-0.30;99.90;;;;;;5071623;28;20049;-77
2023/01/18 08:46:44;;;;;;;12.23;5.97;;;-1.10;99.90;;;;;;5070778;28;20045;-78
2023/01/18 08:49:10;;;;;;;15.40;6.93;;;-1.10;99.90;;;;;;5072708;28;20044;-77
2023/01/18 08:51:36;;;;;;;17.73;7.05;;;-1.00;99.90;;;;;;5072906;28;20044;-79
2023/01/18 08:54:02;;;;;;;11.95;6.10;;;-0.90;99.90;;;;;;5071051;28;20048;-82
2023/01/18 08:56:28;;;;;;;12.25;5.85;;;-0.80;99.90;;;;;;5054985;28;20053;-77
2023/01/18 08:58:54;;;;;;;;;;;-0.50;99.90;;;;;;5071524;28;20044;-77
2023/01/18 09:01:21;;;;;;;14.90;6.45;;;-0.60;99.90;;;;;;5072423;28;19921;-77
2023/01/18 09:03:49;;;;;;;10.07;5.45;;;-0.40;99.90;;;;;;5072024;28;20040;-77
2023/01/18 09:06:15;;;;;;;12.25;6.20;;;-0.60;99.90;;;;;;5072024;28;20049;-73
2023/01/18 09:08:41;;;;;;;16.40;6.60;;;-0.50;99.90;;;;;;5072343;28;20474;-75
2023/01/18 09:11:09;;;;;;;13.73;6.30;;;-0.50;99.90;;;;;;5071960;28;20040;-74
2023/01/18 09:13:35;;;;;;;11.85;5.93;;;-0.40;99.90;;;;;;5072326;28;20052;-74
2023/01/18 09:16:04;;;;;;;20.10;6.60;;;-0.30;99.90;;;;;;5071975;28;20101;-75
2023/01/18 09:18:30;;;;;;;14.13;6.35;;;-0.30;99.90;;;;;;5071702;28;20131;-75
2023/01/18 09:20:57;;;;;;;16.00;7.20;;;-0.30;99.90;;;;;;5071684;28;20048;-78
2023/01/18 09:23:23;;;;;;;13.20;5.75;;;-0.20;99.90;;;;;;5071124;28;20044;-76
2023/01/18 09:26:08;;;;;;;14.40;6.50;;;0.00;99.90;;;;;;5071063;28;20490;-79
2023/01/18 09:28:34;;;;;;;12.38;5.93;;;-0.10;99.90;;;;;;5071802;28;20151;-78
2023/01/18 09:31:07;;;;;;;14.10;5.90;;;0.30;99.90;;;;;;5054141;28;20541;-79
2023/01/18 09:33:33;;;;;;;12.63;5.78;;;0.00;99.90;;;;;;5070941;28;20059;-80
2023/01/18 09:36:01;;;;;;;15.90;6.18;;;0.20;99.90;;;;;;5053310;28;20389;-81
2023/01/18 09:38:30;;;;;;;14.52;6.35;;;0.10;99.90;;;;;;5070369;28;20087;-79
2023/01/18 09:40:56;;;;;;;11.02;5.82;;;0.20;99.90;;;;;;5068807;28;20052;-79
2023/01/18 09:43:38;;;;;;;12.20;6.50;;;0.20;99.90;;;;;;5069811;28;20048;-79
2023/01/18 09:46:04;;;;;;;13.05;6.13;;;0.30;99.90;;;;;;5070510;28;20050;-79
2023/01/18 09:48:38;;;;;;;14.13;6.10;;;0.40;99.90;;;;;;5069369;28;20044;-79
2023/01/18 09:51:24;;;;;;;15.75;5.85;;;0.50;99.90;;;;;;5069573;28;20048;-79
2023/01/18 09:54:28;;;;;;;12.57;5.40;;;0.60;99.90;;;;;;5071048;28;20047;-79
2023/01/18 09:57:02;;;;;;;10.32;5.72;;;0.60;99.90;;;;;;5070740;28;20424;-78
2023/01/18 09:59:55;;;;;;;10.77;5.60;;;0.80;99.90;;;;;;5069887;28;20045;-78
2023/01/18 10:02:25;;;;;;;12.15;5.93;;;1.20;99.90;;;;;;5069442;28;20059;-79
2023/01/18 10:04:59;;;;;;;9.93;4.82;;;0.90;99.90;;;;;;5069436;28;20567;-80
2023/01/18 10:07:28;;;;;;;13.32;5.60;;;1.00;99.90;;;;;;5069516;28;20059;-79
2023/01/18 10:09:57;;;;;;;12.10;5.32;;;1.10;99.90;;;;;;5068313;28;20611;-79
2023/01/18 10:12:42;;;;;;;11.48;4.43;;;1.20;99.90;;;;;;5070335;28;20045;-79
2023/01/18 10:15:28;;;;;;;10.65;4.70;;;1.30;99.90;;;;;;5070317;28;20051;-78
2023/01/18 10:17:56;;;;;;;11.18;5.35;;;1.30;99.90;;;;;;5070106;28;20048;-79
2023/01/18 10:20:31;;;;;;;11.73;5.22;;;1.40;99.90;;;;;;5069626;28;20623;-79
2023/01/18 10:23:03;;;;;;;9.05;4.63;;;1.50;99.90;;;;;;5070186;28;20505;-79
2023/01/18 10:25:47;;;;;;;10.68;4.18;;;2.20;99.90;;;;;;5069442;28;20448;-79
2023/01/18 10:28:24;;;;;;;10.23;4.38;;;1.60;99.90;;;;;;5070058;28;20064;-79
2023/01/18 10:31:18;;;;;;;12.07;5.18;;;1.70;99.90;;;;;;5070798;28;20141;-79
2023/01/18 10:33:45;;;;;;;9.88;4.53;;;1.80;99.90;;;;;;5069772;28;20056;-78
2023/01/18 10:36:19;;;;;;;10.45;4.53;;;1.80;99.90;;;;;;5069264;28;20041;-79
2023/01/18 10:38:46;;;;;;;10.95;4.65;;;1.90;99.90;;;;;;5069762;28;20045;-79
2023/01/18 10:41:27;;;;;;;13.60;4.63;;;1.90;99.90;;;;;;5069121;28;20109;-79
2023/01/18 10:43:53;;;;;;;7.50;3.97;;;2.00;99.90;;;;;;5069954;28;20045;-79
2023/01/18 10:46:20;;;;;;;9.75;3.80;;;2.00;99.90;;;;;;5069286;28;20098;-79
2023/01/18 10:48:51;;;;;;;8.10;4.15;;;2.10;99.90;;;;;;5053154;28;20486;-78
2023/01/18 10:51:35;;;;;;;11.35;4.10;;;2.20;99.90;;;;;;5069367;28;20053;-78
2023/01/18 10:54:21;;;;;;;8.23;3.78;;;2.30;99.90;;;;;;5069884;28;20106;-72
2023/01/18 10:56:47;;;;;;;9.32;4.03;;;2.40;99.90;;;;;;5069500;28;20049;-75
2023/01/18 10:59:32;;;;;;;15.25;4.85;;;2.70;99.90;;;;;;5072176;28;20401;-79
2023/01/18 11:01:59;;;;;;;8.75;3.92;;;2.80;99.90;;;;;;5073827;28;20052;-77
2023/01/18 11:04:29;;;;;;;8.63;4.50;;;3.20;99.90;;;;;;5074172;28;20044;-74
2023/01/18 11:06:59;;;;;;;11.60;4.50;;;3.90;99.90;;;;;;5073524;28;20044;-76
2023/01/18 11:09:41;;;;;;;10.68;4.07;;;4.80;99.90;;;;;;5073864;28;20206;-79
2023/01/18 11:12:32;;;;;;;8.27;3.72;;;5.30;99.90;;;;;;5073805;28;20048;-83
2023/01/18 11:15:13;;;;;;;7.93;3.67;;;5.50;99.90;;;;;;5073650;28;20048;-82
2023/01/18 11:17:41;;;;;;;6.65;3.20;;;5.90;99.90;;;;;;5073870;28;20040;-85
2023/01/18 11:20:15;;;;;;;7.53;3.67;;;6.10;99.90;;;;;;5073604;28;20052;-85
2023/01/18 11:22:57;;;;;;;7.38;3.47;;;6.30;99.90;;;;;;5072213;28;20091;-85
2023/01/18 11:25:24;;;;;;;9.38;3.80;;;6.50;99.90;;;;;;5072736;28;20045;-78
2023/01/18 11:27:50;;;;;;;9.98;3.70;;;6.80;99.90;;;;;;5073314;28;20056;-83
2023/01/18 11:30:24;;;;;;;6.15;3.17;;;7.20;99.90;;;;;;5071323;28;20053;-71
2023/01/18 11:32:50;;;;;;;6.10;3.30;;;7.70;99.90;;;;;;5072251;28;20062;-72
2023/01/18 11:35:31;;;;;;;8.68;3.92;;;8.00;99.90;;;;;;5072887;28;20044;-72
2023/01/18 11:38:02;;;;;;;9.88;3.65;;;8.20;99.90;;;;;;5071651;28;20048;-73
2023/01/18 11:40:31;;;;;;;7.82;3.30;;;8.60;99.90;;;;;;5071566;28;20088;-70
2023/01/18 11:43:03;;;;;;;8.20;3.85;;;8.80;99.90;;;;;;5072911;28;20378;-71
2023/01/18 11:45:39;;;;;;;5.53;3.10;;;8.90;99.90;;;;;;5072925;28;20140;-72
2023/01/18 11:48:07;;;;;;;7.22;3.88;;;9.00;99.90;;;;;;5072614;28;20044;-82
2023/01/18 11:50:47;;;;;;;9.77;3.35;;;9.00;99.90;;;;;;5073081;28;20049;-79
2023/01/18 11:53:40;;;;;;;9.00;3.85;;;9.10;99.90;;;;;;5072421;28;20102;-80
2023/01/18 11:56:20;;;;;;;9.10;3.65;;;9.30;99.90;;;;;;5063612;28;20048;-72
2023/01/18 11:58:48;;;;;;;10.35;3.85;;;9.80;99.90;;;;;;5071260;28;20040;-72
2023/01/18 12:01:35;;;;;;;7.38;3.63;;;10.40;99.90;;;;;;5071792;28;20075;-73
2023/01/18 12:04:16;;;;;;;6.97;3.20;;;10.90;99.90;;;;;;5071856;28;20497;-72
2023/01/18 12:06:53;;;;;;;6.25;3.58;;;11.60;99.90;;;;;;5071992;28;20051;-73
2023/01/18 12:09:37;;;;;;;7.25;3.30;;;11.90;99.90;;;;;;5072094;28;20451;-84
2023/01/18 12:12:18;;;;;;;7.80;3.47;;;11.70;99.90;;;;;;5073114;28;20060;-77
2023/01/18 12:15:02;;;;;;;5.75;3.40;;;11.70;99.90;;;;;;5072667;28;20466;-79
2023/01/18 12:17:45;;;;;;;8.05;3.28;;;12.00;99.90;;;;;;5072086;28;20117;-76
2023/01/18 12:20:23;;;;;;;7.53;3.80;;;12.00;99.90;;;;;;5071642;28;20055;-76
2023/01/18 12:23:14;;;;;;;6.88;3.33;;;12.00;99.90;;;;;;5073573;28;20047;-77
2023/01/18 12:25:55;;;;;;;11.05;3.17;;;11.90;99.90;;;;;;5071970;28;20102;-78
2023/01/18 12:28:49;;;;;;;6.78;3.47;;;11.70;99.90;;;;;;5070900;28;20466;-78
2023/01/18 12:31:21;;;;;;;7.03;3.20;;;11.50;99.90;;;;;;5072487;28;20417;-80
2023/01/18 12:34:09;;;;;;;8.55;3.85;;;11.70;99.90;;;;;;5072347;28;20056;-78
2023/01/18 12:36:40;;;;;;;6.47;3.20;;;11.80;99.90;;;;;;5073004;28;20045;-77
2023/01/18 12:39:28;;;;;;;5.03;3.05;;;11.90;99.90;;;;;;5071274;28;20490;-78
2023/01/18 12:42:20;;;;;;;4.82;2.78;;;12.00;95.70;;;;;;5072920;28;20041;-78
2023/01/18 12:45:11;;;;;;;8.25;3.40;;;12.10;99.00;;;;;;5072841;28;20095;-79
2023/01/18 12:47:41;;;;;;;5.55;2.80;;;12.10;99.90;;;;;;5072753;28;20056;-78
2023/01/18 12:50:24;;;;;;;11.10;3.65;;;12.00;99.90;;;;;;5072470;28;20470;-78
2023/01/18 12:52:59;;;;;;;6.38;3.28;;;12.10;99.90;;;;;;5055064;28;20048;-78
2023/01/18 12:55:30;;;;;;;6.57;3.22;;;12.10;99.40;;;;;;5072087;28;20097;-78
2023/01/18 12:57:58;;;;;;;6.43;3.15;;;11.90;99.90;;;;;;5071492;28;20052;-77
2023/01/18 13:00:53;;;;;;;6.97;3.15;;;12.10;99.90;;;;;;5071356;28;20059;-78
2023/01/18 13:03:24;;;;;;;6.72;2.90;;;11.80;92.60;;;;;;5070100;28;20147;-77
2023/01/18 13:05:56;;;;;;;8.20;2.88;;;11.70;99.90;;;;;;5072573;28;20048;-78
2023/01/18 13:08:31;;;;;;;5.60;2.60;;;11.60;97.50;;;;;;5071778;28;20079;-77
2023/01/18 13:11:13;;;;;;;8.10;3.35;;;11.40;98.00;;;;;;5072111;28;20080;-77
2023/01/18 13:13:41;;;;;;;8.82;3.60;;;11.60;98.70;;;;;;5072515;28;20127;-77
2023/01/18 13:16:34;;;;;;;8.52;3.25;;;11.90;99.90;;;;;;5071758;28;20044;-83
2023/01/18 13:19:04;;;;;;;6.53;2.80;;;11.90;92.10;;;;;;5071945;28;20051;-76
2023/01/18 13:21:36;;;;;;;6.82;3.08;;;11.70;95.00;;;;;;5070706;28;20048;-78
2023/01/18 13:24:19;;;;;;;7.63;3.33;;;11.80;96.20;;;;;;5071134;28;20560;-79
2023/01/18 13:26:44;;;;;;;5.68;2.90;;;12.00;97.90;;;;;;5071940;28;20044;-77
2023/01/18 13:29:23;;;;;;;7.95;3.10;;;12.20;98.80;;;;;;5071501;28;20056;-78
2023/01/18 13:31:49;;;;;;;5.43;3.00;;;12.50;99.90;;;;;;5071985;28;20056;-78
2023/01/18 13:34:30;;;;;;;5.75;2.80;;;12.70;98.80;;;;;;5070654;28;20394;-77